sensor_id;sensor_type;location;lat;lon;timestamp;pressure;altitude;pressure_sealevel;temperature;humidity
38780;BME280;29273;49.962;9.768;2023-08-01T00:00:03;98637.69;;;21.43;59.10
38780;BME280;29273;49.962;9.768;2023-08-01T00:02:37;98633.38;;;21.42;59.30
38780;BME280;29273;49.962;9.768;2023-08-01T00:05:03;98620.22;;;21.41;59.29
38780;BME280;29273;49.962;9.768;2023-08-01T00:07:29;98627.50;;;21.40;59.41
38780;BME280;29273;49.962;9.768;2023-08-01T00:09:54;98617.03;;;21.39;59.55
38780;BME280;29273;49.962;9.768;2023-08-01T00:12:20;98614.63;;;21.37;59.40
38780;BME280;29273;49.962;9.768;2023-08-01T00:14:46;98611.94;;;21.37;59.70
38780;BME280;29273;49.962;9.768;2023-08-01T00:17:11;98612.53;;;21.34;60.03
38780;BME280;29273;49.962;9.768;2023-08-01T00:19:37;98609.84;;;21.34;59.87
38780;BME280;29273;49.962;9.768;2023-08-01T00:22:02;98602.06;;;21.33;59.93
38780;BME280;29273;49.962;9.768;2023-08-01T00:24:28;98603.19;;;21.32;59.78
38780;BME280;29273;49.962;9.768;2023-08-01T00:26:53;98591.91;;;21.30;60.08
38780;BME280;29273;49.962;9.768;2023-08-01T00:29:21;98591.91;;;21.30;60.19
38780;BME280;29273;49.962;9.768;2023-08-01T00:31:46;98584.94;;;21.29;60.46
38780;BME280;29273;49.962;9.768;2023-08-01T00:34:12;98579.84;;;21.27;60.43
38780;BME280;29273;49.962;9.768;2023-08-01T00:36:38;98568.25;;;21.26;60.48
38780;BME280;29273;49.962;9.768;2023-08-01T00:39:03;98556.72;;;21.26;60.29
38780;BME280;29273;49.962;9.768;2023-08-01T00:41:28;98547.84;;;21.25;60.75
38780;BME280;29273;49.962;9.768;2023-08-01T00:43:54;98540.06;;;21.24;60.51
38780;BME280;29273;49.962;9.768;2023-08-01T00:46:20;98535.47;;;21.24;60.57
38780;BME280;29273;49.962;9.768;2023-08-01T00:48:46;98536.28;;;21.25;60.54
38780;BME280;29273;49.962;9.768;2023-08-01T00:51:11;98527.69;;;21.23;60.56
38780;BME280;29273;49.962;9.768;2023-08-01T00:53:37;98518.84;;;21.22;60.84
38780;BME280;29273;49.962;9.768;2023-08-01T00:56:04;98517.22;;;21.21;60.90
38780;BME280;29273;49.962;9.768;2023-08-01T00:58:29;98517.22;;;21.21;60.97
38780;BME280;29273;49.962;9.768;2023-08-01T01:00:55;98511.34;;;21.19;61.00
38780;BME280;29273;49.962;9.768;2023-08-01T01:03:22;98502.50;;;21.19;61.23
38780;BME280;29273;49.962;9.768;2023-08-01T01:06:17;98491.41;;;21.20;58.46
38780;BME280;29273;49.962;9.768;2023-08-01T01:08:47;98491.84;;;21.14;61.19
38780;BME280;29273;49.962;9.768;2023-08-01T01:11:12;98490.25;;;21.13;61.57
38780;BME280;29273;49.962;9.768;2023-08-01T01:13:38;98476.00;;;21.12;61.44
38780;BME280;29273;49.962;9.768;2023-08-01T01:16:03;98459.06;;;21.12;61.68
38780;BME280;29273;49.962;9.768;2023-08-01T01:18:29;98445.91;;;21.10;61.97
38780;BME280;29273;49.962;9.768;2023-08-01T01:20:54;98432.75;;;21.09;61.46
38780;BME280;29273;49.962;9.768;2023-08-01T01:23:20;98435.44;;;21.09;61.47
38780;BME280;29273;49.962;9.768;2023-08-01T01:25:49;98441.59;;;21.09;61.08
38780;BME280;29273;49.962;9.768;2023-08-01T01:28:16;98430.34;;;21.07;61.75
38780;BME280;29273;49.962;9.768;2023-08-01T01:30:43;98436.53;;;21.07;61.72
38780;BME280;29273;49.962;9.768;2023-08-01T01:33:09;98438.44;;;21.07;61.48
38780;BME280;29273;49.962;9.768;2023-08-01T01:35:36;98430.94;;;21.04;61.92
38780;BME280;29273;49.962;9.768;2023-08-01T01:38:02;98430.47;;;21.02;62.13
38780;BME280;29273;49.962;9.768;2023-08-01T01:40:31;98429.66;;;21.01;61.77
38780;BME280;29273;49.962;9.768;2023-08-01T01:42:58;98432.66;;;21.00;62.21
38780;BME280;29273;49.962;9.768;2023-08-01T01:45:24;98416.81;;;20.98;62.13
38780;BME280;29273;49.962;9.768;2023-08-01T01:47:49;98420.63;;;20.97;62.44
38780;BME280;29273;49.962;9.768;2023-08-01T01:50:15;98410.44;;;20.94;62.29
38780;BME280;29273;49.962;9.768;2023-08-01T01:52:40;98422.00;;;20.95;62.54
38780;BME280;29273;49.962;9.768;2023-08-01T01:55:06;98415.03;;;20.94;62.56
38780;BME280;29273;49.962;9.768;2023-08-01T01:57:32;98404.88;;;20.91;62.81
38780;BME280;29273;49.962;9.768;2023-08-01T01:59:59;98411.84;;;20.92;62.58
38780;BME280;29273;49.962;9.768;2023-08-01T02:02:24;98406.78;;;20.90;62.55
38780;BME280;29273;49.962;9.768;2023-08-01T02:04:51;98404.09;;;20.90;62.51
38780;BME280;29273;49.962;9.768;2023-08-01T02:07:17;98396.34;;;20.88;62.59
38780;BME280;29273;49.962;9.768;2023-08-01T02:09:43;98392.81;;;20.88;62.78
38780;BME280;29273;49.962;9.768;2023-08-01T02:12:09;98381.28;;;20.87;62.78
38780;BME280;29273;49.962;9.768;2023-08-01T02:14:36;98391.25;;;20.87;62.69
38780;BME280;29273;49.962;9.768;2023-08-01T02:17:01;98381.56;;;20.86;62.67
38780;BME280;29273;49.962;9.768;2023-08-01T02:19:27;98388.84;;;20.85;62.90
38780;BME280;29273;49.962;9.768;2023-08-01T02:21:53;98380.78;;;20.85;62.45
38780;BME280;29273;49.962;9.768;2023-08-01T02:24:19;98374.09;;;20.83;62.80
38780;BME280;29273;49.962;9.768;2023-08-01T02:26:44;98364.47;;;20.82;62.87
38780;BME280;29273;49.962;9.768;2023-08-01T02:29:10;98362.84;;;20.81;62.84
38780;BME280;29273;49.962;9.768;2023-08-01T02:31:35;98358.56;;;20.80;62.97
38780;BME280;29273;49.962;9.768;2023-08-01T02:34:02;98354.78;;;20.81;62.96
38780;BME280;29273;49.962;9.768;2023-08-01T02:36:27;98355.09;;;20.79;63.30
38780;BME280;29273;49.962;9.768;2023-08-01T02:38:53;98354.31;;;20.79;63.11
38780;BME280;29273;49.962;9.768;2023-08-01T02:41:18;98342.72;;;20.78;63.35
38780;BME280;29273;49.962;9.768;2023-08-01T02:43:44;98340.38;;;20.77;63.40
38780;BME280;29273;49.962;9.768;2023-08-01T02:46:09;98330.41;;;20.77;63.34
38780;BME280;29273;49.962;9.768;2023-08-01T02:48:35;98315.03;;;20.78;63.33
38780;BME280;29273;49.962;9.768;2023-08-01T02:51:01;98317.72;;;20.78;63.37
38780;BME280;29273;49.962;9.768;2023-08-01T02:53:27;98302.38;;;20.78;63.52
38780;BME280;29273;49.962;9.768;2023-08-01T02:55:52;98304.28;;;20.78;63.69
38780;BME280;29273;49.962;9.768;2023-08-01T02:58:18;98300.19;;;20.80;63.83
38780;BME280;29273;49.962;9.768;2023-08-01T03:00:43;98287.84;;;20.79;63.57
38780;BME280;29273;49.962;9.768;2023-08-01T03:03:10;98297.50;;;20.80;63.55
38780;BME280;29273;49.962;9.768;2023-08-01T03:05:36;98302.28;;;20.83;63.09
38780;BME280;29273;49.962;9.768;2023-08-01T03:08:03;98295.00;;;20.84;63.42
38780;BME280;29273;49.962;9.768;2023-08-01T03:10:29;98292.31;;;20.84;63.59
38780;BME280;29273;49.962;9.768;2023-08-01T03:12:55;98282.31;;;20.84;63.53
38780;BME280;29273;49.962;9.768;2023-08-01T03:15:20;98293.56;;;20.86;63.31
38780;BME280;29273;49.962;9.768;2023-08-01T03:17:46;98289.31;;;20.85;63.49
38780;BME280;29273;49.962;9.768;2023-08-01T03:20:12;98280.94;;;20.87;63.43
38780;BME280;29273;49.962;9.768;2023-08-01T03:22:38;98273.66;;;20.87;63.37
38780;BME280;29273;49.962;9.768;2023-08-01T03:25:05;98283.63;;;20.87;63.25
38780;BME280;29273;49.962;9.768;2023-08-01T03:27:33;98279.34;;;20.86;63.05
38780;BME280;29273;49.962;9.768;2023-08-01T03:29:59;98269.34;;;20.86;63.01
38780;BME280;29273;49.962;9.768;2023-08-01T03:32:25;98258.13;;;20.84;63.08
38780;BME280;29273;49.962;9.768;2023-08-01T03:34:51;98253.03;;;20.83;63.26
38780;BME280;29273;49.962;9.768;2023-08-01T03:37:17;98246.88;;;20.82;63.60
38780;BME280;29273;49.962;9.768;2023-08-01T03:39:43;98247.97;;;20.81;63.40
38780;BME280;29273;49.962;9.768;2023-08-01T03:42:08;98232.13;;;20.80;63.77
38780;BME280;29273;49.962;9.768;2023-08-01T03:44:34;98235.63;;;20.80;63.74
38780;BME280;29273;49.962;9.768;2023-08-01T03:46:59;98234.81;;;20.80;63.70
38780;BME280;29273;49.962;9.768;2023-08-01T03:49:25;98235.13;;;20.78;63.92
38780;BME280;29273;49.962;9.768;2023-08-01T03:51:50;98240.84;;;20.77;63.34
38780;BME280;29273;49.962;9.768;2023-08-01T03:54:16;98240.03;;;20.76;63.84
38780;BME280;29273;49.962;9.768;2023-08-01T03:56:42;98259.97;;;20.75;63.75
38780;BME280;29273;49.962;9.768;2023-08-01T03:59:12;98257.47;;;20.79;63.09
38780;BME280;29273;49.962;9.768;2023-08-01T04:01:37;98251.09;;;20.75;63.95
38780;BME280;29273;49.962;9.768;2023-08-01T04:04:03;98250.59;;;20.73;63.71
38780;BME280;29273;49.962;9.768;2023-08-01T04:06:29;98248.69;;;20.73;63.79
38780;BME280;29273;49.962;9.768;2023-08-01T04:08:54;98249.00;;;20.72;64.03
38780;BME280;29273;49.962;9.768;2023-08-01T04:11:22;98249.81;;;20.72;63.67
38780;BME280;29273;49.962;9.768;2023-08-01T04:13:47;98247.44;;;20.70;63.54
38780;BME280;29273;49.962;9.768;2023-08-01T04:16:13;98251.22;;;20.69;63.85
38780;BME280;29273;49.962;9.768;2023-08-01T04:18:38;98255.81;;;20.69;63.46
38780;BME280;29273;49.962;9.768;2023-08-01T04:21:04;98256.09;;;20.67;63.72
38780;BME280;29273;49.962;9.768;2023-08-01T04:23:29;98251.50;;;20.68;63.84
38780;BME280;29273;49.962;9.768;2023-08-01T04:25:55;98258.00;;;20.67;63.88
38780;BME280;29273;49.962;9.768;2023-08-01T04:28:20;98260.69;;;20.67;63.84
38780;BME280;29273;49.962;9.768;2023-08-01T04:30:52;98258.66;;;20.73;62.53
38780;BME280;29273;49.962;9.768;2023-08-01T04:33:18;98247.09;;;20.49;62.20
38780;BME280;29273;49.962;9.768;2023-08-01T04:35:43;98247.66;;;20.60;64.24
38780;BME280;29273;49.962;9.768;2023-08-01T04:38:09;98247.66;;;20.60;64.26
38780;BME280;29273;49.962;9.768;2023-08-01T04:40:36;98233.91;;;20.62;64.43
38780;BME280;29273;49.962;9.768;2023-08-01T04:43:02;98228.53;;;20.62;64.43
38780;BME280;29273;49.962;9.768;2023-08-01T04:45:27;98221.25;;;20.62;64.34
38780;BME280;29273;49.962;9.768;2023-08-01T04:47:53;98212.38;;;20.62;64.60
38780;BME280;29273;49.962;9.768;2023-08-01T04:50:18;98210.78;;;20.61;64.09
38780;BME280;29273;49.962;9.768;2023-08-01T04:52:44;98209.19;;;20.60;64.27
38780;BME280;29273;49.962;9.768;2023-08-01T04:55:09;98214.56;;;20.60;64.30
38780;BME280;29273;49.962;9.768;2023-08-01T04:57:34;98224.53;;;20.59;64.42
38780;BME280;29273;49.962;9.768;2023-08-01T05:00:00;98238.28;;;20.58;64.58
38780;BME280;29273;49.962;9.768;2023-08-01T05:02:25;98234.81;;;20.57;64.53
38780;BME280;29273;49.962;9.768;2023-08-01T05:04:51;98234.00;;;20.57;64.28
38780;BME280;29273;49.962;9.768;2023-08-01T05:07:17;98224.38;;;20.56;64.12
38780;BME280;29273;49.962;9.768;2023-08-01T05:09:42;98210.13;;;20.55;64.29
38780;BME280;29273;49.962;9.768;2023-08-01T05:12:08;98215.50;;;20.55;64.36
38780;BME280;29273;49.962;9.768;2023-08-01T05:14:34;98213.59;;;20.56;64.51
38780;BME280;29273;49.962;9.768;2023-08-01T05:17:00;98217.38;;;20.55;64.35
38780;BME280;29273;49.962;9.768;2023-08-01T05:19:25;98219.59;;;20.52;64.85
38780;BME280;29273;49.962;9.768;2023-08-01T05:21:51;98235.25;;;20.50;65.30
38780;BME280;29273;49.962;9.768;2023-08-01T05:24:16;98242.50;;;20.50;64.86
38780;BME280;29273;49.962;9.768;2023-08-01T05:26:41;98235.72;;;20.52;64.82
38780;BME280;29273;49.962;9.768;2023-08-01T05:29:07;98252.47;;;20.49;65.26
38780;BME280;29273;49.962;9.768;2023-08-01T05:31:32;98242.81;;;20.48;65.18
38780;BME280;29273;49.962;9.768;2023-08-01T05:33:58;98258.16;;;20.48;65.44
38780;BME280;29273;49.962;9.768;2023-08-01T05:36:23;98263.53;;;20.48;65.03
38780;BME280;29273;49.962;9.768;2023-08-01T05:38:49;98267.03;;;20.48;65.34
38780;BME280;29273;49.962;9.768;2023-08-01T05:41:14;98254.38;;;20.49;65.23
38780;BME280;29273;49.962;9.768;2023-08-01T05:43:40;98250.91;;;20.48;64.72
38780;BME280;29273;49.962;9.768;2023-08-01T05:46:05;98254.38;;;20.49;64.81
38780;BME280;29273;49.962;9.768;2023-08-01T05:48:31;98255.16;;;20.49;65.11
38780;BME280;29273;49.962;9.768;2023-08-01T05:50:56;98262.44;;;20.49;65.34
38780;BME280;29273;49.962;9.768;2023-08-01T05:53:23;98254.84;;;20.51;65.01
38780;BME280;29273;49.962;9.768;2023-08-01T05:55:49;98248.69;;;20.50;65.30
38780;BME280;29273;49.962;9.768;2023-08-01T05:58:15;98241.41;;;20.51;65.14
38780;BME280;29273;49.962;9.768;2023-08-01T06:00:41;98226.06;;;20.51;65.10
38780;BME280;29273;49.962;9.768;2023-08-01T06:03:06;98214.50;;;20.51;65.17
38780;BME280;29273;49.962;9.768;2023-08-01T06:05:32;98210.22;;;20.50;65.55
38780;BME280;29273;49.962;9.768;2023-08-01T06:07:57;98218.00;;;20.51;65.43
38780;BME280;29273;49.962;9.768;2023-08-01T06:10:23;98206.94;;;20.53;65.68
38780;BME280;29273;49.962;9.768;2023-08-01T06:12:48;98192.69;;;20.52;65.37
38780;BME280;29273;49.962;9.768;2023-08-01T06:15:14;98195.09;;;20.54;65.54
38780;BME280;29273;49.962;9.768;2023-08-01T06:17:39;98199.38;;;20.55;65.63
38780;BME280;29273;49.962;9.768;2023-08-01T06:20:05;98218.97;;;20.56;65.40
38780;BME280;29273;49.962;9.768;2023-08-01T06:22:31;98215.19;;;20.57;65.23
38780;BME280;29273;49.962;9.768;2023-08-01T06:24:57;98224.06;;;20.57;64.94
38780;BME280;29273;49.962;9.768;2023-08-01T06:27:22;98202.53;;;20.57;64.58
38780;BME280;29273;49.962;9.768;2023-08-01T06:29:48;98189.88;;;20.58;65.09
38780;BME280;29273;49.962;9.768;2023-08-01T06:32:13;98201.72;;;20.57;64.99
38780;BME280;29273;49.962;9.768;2023-08-01T06:34:38;98198.56;;;20.55;64.82
38780;BME280;29273;49.962;9.768;2023-08-01T06:37:04;98209.00;;;20.56;65.13
38780;BME280;29273;49.962;9.768;2023-08-01T06:39:30;98219.47;;;20.58;64.56
38780;BME280;29273;49.962;9.768;2023-08-01T06:41:55;98207.44;;;20.55;64.65
38780;BME280;29273;49.962;9.768;2023-08-01T06:44:21;98187.81;;;20.55;64.60
38780;BME280;29273;49.962;9.768;2023-08-01T06:46:46;98173.25;;;20.56;64.72
38780;BME280;29273;49.962;9.768;2023-08-01T06:49:12;98169.78;;;20.55;64.38
38780;BME280;29273;49.962;9.768;2023-08-01T06:51:37;98169.28;;;20.53;64.03
38780;BME280;29273;49.962;9.768;2023-08-01T06:54:03;98184.16;;;20.50;64.12
38780;BME280;29273;49.962;9.768;2023-08-01T06:56:28;98215.59;;;20.50;63.66
38780;BME280;29273;49.962;9.768;2023-08-01T06:58:53;98227.19;;;20.50;63.72
38780;BME280;29273;49.962;9.768;2023-08-01T07:01:19;98228.75;;;20.51;63.65
38780;BME280;29273;49.962;9.768;2023-08-01T07:03:44;98233.66;;;20.49;63.53
38780;BME280;29273;49.962;9.768;2023-08-01T07:06:11;98251.84;;;20.52;63.56
38780;BME280;29273;49.962;9.768;2023-08-01T07:08:36;98235.72;;;20.52;63.77
38780;BME280;29273;49.962;9.768;2023-08-01T07:11:02;98218.28;;;20.50;63.60
38780;BME280;29273;49.962;9.768;2023-08-01T07:13:28;98218.50;;;20.54;63.74
38780;BME280;29273;49.962;9.768;2023-08-01T07:15:53;98205.84;;;20.54;63.88
38780;BME280;29273;49.962;9.768;2023-08-01T07:18:19;98208.53;;;20.54;64.04
38780;BME280;29273;49.962;9.768;2023-08-01T07:20:44;98217.38;;;20.55;63.98
38780;BME280;29273;49.962;9.768;2023-08-01T07:23:10;98202.84;;;20.56;63.93
38780;BME280;29273;49.962;9.768;2023-08-01T07:25:35;98206.16;;;20.52;63.82
38780;BME280;29273;49.962;9.768;2023-08-01T07:28:02;98217.06;;;20.56;64.01
38780;BME280;29273;49.962;9.768;2023-08-01T07:30:27;98216.28;;;20.56;64.05
38780;BME280;29273;49.962;9.768;2023-08-01T07:32:55;98232.44;;;20.56;64.06
38780;BME280;29273;49.962;9.768;2023-08-01T07:35:21;98219.75;;;20.56;64.11
38780;BME280;29273;49.962;9.768;2023-08-01T07:37:46;98231.66;;;20.55;64.22
38780;BME280;29273;49.962;9.768;2023-08-01T07:40:12;98238.28;;;20.58;64.25
38780;BME280;29273;49.962;9.768;2023-08-01T07:42:37;98236.38;;;20.58;64.60
38780;BME280;29273;49.962;9.768;2023-08-01T07:45:03;98220.75;;;20.60;64.23
38780;BME280;29273;49.962;9.768;2023-08-01T07:47:29;98226.13;;;20.60;64.63
38780;BME280;29273;49.962;9.768;2023-08-01T07:49:54;98225.03;;;20.61;64.56
38780;BME280;29273;49.962;9.768;2023-08-01T07:52:20;98227.44;;;20.63;64.81
38780;BME280;29273;49.962;9.768;2023-08-01T07:54:45;98234.69;;;20.62;64.49
38780;BME280;29273;49.962;9.768;2023-08-01T07:57:10;98232.00;;;20.62;64.69
38780;BME280;29273;49.962;9.768;2023-08-01T07:59:36;98242.47;;;20.64;64.91
38780;BME280;29273;49.962;9.768;2023-08-01T08:02:01;98251.34;;;20.64;65.01
38780;BME280;29273;49.962;9.768;2023-08-01T08:04:27;98235.69;;;20.66;65.49
38780;BME280;29273;49.962;9.768;2023-08-01T08:06:53;98242.66;;;20.67;64.84
38780;BME280;29273;49.962;9.768;2023-08-01T08:09:20;98247.13;;;20.72;65.47
38780;BME280;29273;49.962;9.768;2023-08-01T08:11:48;98243.00;;;20.75;65.35
38780;BME280;29273;49.962;9.768;2023-08-01T08:14:13;98246.22;;;20.77;65.20
38780;BME280;29273;49.962;9.768;2023-08-01T08:16:40;98247.66;;;20.83;64.93
38780;BME280;29273;49.962;9.768;2023-08-01T08:19:06;98238.97;;;20.86;65.48
38780;BME280;29273;49.962;9.768;2023-08-01T08:21:31;98248.34;;;20.88;65.17
38780;BME280;29273;49.962;9.768;2023-08-01T08:23:57;98249.31;;;20.93;65.40
38780;BME280;29273;49.962;9.768;2023-08-01T08:26:22;98262.13;;;20.96;64.70
38780;BME280;29273;49.962;9.768;2023-08-01T08:28:49;98275.78;;;20.99;65.08
38780;BME280;29273;49.962;9.768;2023-08-01T08:31:14;98315.06;;;21.00;64.52
38780;BME280;29273;49.962;9.768;2023-08-01T08:33:40;98315.34;;;20.99;62.59
38780;BME280;29273;49.962;9.768;2023-08-01T08:36:05;98314.88;;;20.97;62.00
38780;BME280;29273;49.962;9.768;2023-08-01T08:38:31;98324.16;;;20.91;60.57
38780;BME280;29273;49.962;9.768;2023-08-01T08:41:08;98310.84;;;20.85;59.96
38780;BME280;29273;49.962;9.768;2023-08-01T08:43:34;98299.63;;;20.69;61.92
38780;BME280;29273;49.962;9.768;2023-08-01T08:46:01;98308.69;;;20.60;60.93
38780;BME280;29273;49.962;9.768;2023-08-01T08:48:28;98295.97;;;20.51;61.30
38780;BME280;29273;49.962;9.768;2023-08-01T08:50:57;98293.72;;;20.45;61.87
38780;BME280;29273;49.962;9.768;2023-08-01T08:53:25;98285.38;;;20.32;61.85
38780;BME280;29273;49.962;9.768;2023-08-01T08:55:50;98284.72;;;20.27;62.51
38780;BME280;29273;49.962;9.768;2023-08-01T08:58:17;98279.94;;;20.24;62.49
38780;BME280;29273;49.962;9.768;2023-08-01T09:00:44;98292.91;;;20.22;63.23
38780;BME280;29273;49.962;9.768;2023-08-01T09:03:09;98283.03;;;20.17;64.78
38780;BME280;29273;49.962;9.768;2023-08-01T09:05:40;98287.53;;;20.22;63.48
38780;BME280;29273;49.962;9.768;2023-08-01T09:08:19;98280.53;;;20.21;62.79
38780;BME280;29273;49.962;9.768;2023-08-01T09:10:46;98291.88;;;20.18;64.60
38780;BME280;29273;49.962;9.768;2023-08-01T09:13:14;98288.91;;;20.19;65.25
38780;BME280;29273;49.962;9.768;2023-08-01T09:15:41;98294.94;;;20.25;66.22
38780;BME280;29273;49.962;9.768;2023-08-01T09:18:09;98282.22;;;20.30;66.73
38780;BME280;29273;49.962;9.768;2023-08-01T09:20:42;98273.78;;;20.46;66.44
38780;BME280;29273;49.962;9.768;2023-08-01T09:23:09;98290.41;;;20.48;66.53
38780;BME280;29273;49.962;9.768;2023-08-01T09:25:36;98292.19;;;20.52;66.23
38780;BME280;29273;49.962;9.768;2023-08-01T09:28:02;98299.34;;;20.57;65.34
38780;BME280;29273;49.962;9.768;2023-08-01T09:30:27;98304.63;;;20.62;65.94
38780;BME280;29273;49.962;9.768;2023-08-01T09:32:56;98299.03;;;20.73;65.98
38780;BME280;29273;49.962;9.768;2023-08-01T09:35:24;98300.63;;;20.74;65.01
38780;BME280;29273;49.962;9.768;2023-08-01T09:37:49;98304.41;;;20.73;64.53
38780;BME280;29273;49.962;9.768;2023-08-01T09:40:15;98306.47;;;20.76;65.17
38780;BME280;29273;49.962;9.768;2023-08-01T09:42:44;98300.38;;;20.84;65.86
38780;BME280;29273;49.962;9.768;2023-08-01T09:45:14;98312.09;;;20.88;66.06
38780;BME280;29273;49.962;9.768;2023-08-01T09:47:40;98312.72;;;20.85;64.58
38780;BME280;29273;49.962;9.768;2023-08-01T09:50:06;98317.00;;;20.86;63.06
38780;BME280;29273;49.962;9.768;2023-08-01T09:52:32;98324.78;;;20.87;63.91
38780;BME280;29273;49.962;9.768;2023-08-01T09:54:58;98334.44;;;20.88;63.43
38780;BME280;29273;49.962;9.768;2023-08-01T09:57:28;98325.94;;;20.95;64.57
38780;BME280;29273;49.962;9.768;2023-08-01T09:59:56;98333.81;;;20.92;63.74
38780;BME280;29273;49.962;9.768;2023-08-01T10:02:24;98330.50;;;20.95;64.11
38780;BME280;29273;49.962;9.768;2023-08-01T10:04:56;98329.41;;;20.96;64.40
38780;BME280;29273;49.962;9.768;2023-08-01T10:07:24;98327.50;;;20.96;65.07
38780;BME280;29273;49.962;9.768;2023-08-01T10:09:54;98325.31;;;20.98;62.68
38780;BME280;29273;49.962;9.768;2023-08-01T10:12:22;98323.13;;;21.00;63.38
38780;BME280;29273;49.962;9.768;2023-08-01T10:14:47;98319.63;;;21.00;64.37
38780;BME280;29273;49.962;9.768;2023-08-01T10:17:14;98326.00;;;21.04;64.20
38780;BME280;29273;49.962;9.768;2023-08-01T10:19:40;98326.47;;;21.06;62.87
38780;BME280;29273;49.962;9.768;2023-08-01T10:22:06;98324.78;;;21.10;65.17
38780;BME280;29273;49.962;9.768;2023-08-01T10:24:33;98324.66;;;21.15;63.22
38780;BME280;29273;49.962;9.768;2023-08-01T10:27:14;98324.38;;;21.25;63.95
38780;BME280;29273;49.962;9.768;2023-08-01T10:29:41;98328.97;;;21.25;63.41
38780;BME280;29273;49.962;9.768;2023-08-01T10:32:07;98321.88;;;21.29;62.97
38780;BME280;29273;49.962;9.768;2023-08-01T10:34:33;98319.34;;;21.33;64.04
38780;BME280;29273;49.962;9.768;2023-08-01T10:36:59;98307.66;;;21.37;65.08
38780;BME280;29273;49.962;9.768;2023-08-01T10:39:26;98319.56;;;21.45;62.39
38780;BME280;29273;49.962;9.768;2023-08-01T10:42:03;98311.38;;;21.50;63.03
38780;BME280;29273;49.962;9.768;2023-08-01T10:44:30;98321.03;;;21.51;63.37
38780;BME280;29273;49.962;9.768;2023-08-01T10:47:05;98323.16;;;21.63;63.89
38780;BME280;29273;49.962;9.768;2023-08-01T10:49:42;98325.69;;;21.68;63.20
38780;BME280;29273;49.962;9.768;2023-08-01T10:55:03;98324.78;;;21.81;61.94
38780;BME280;29273;49.962;9.768;2023-08-01T10:57:34;98338.94;;;21.87;61.95
38780;BME280;29273;49.962;9.768;2023-08-01T11:00:00;98339.25;;;21.86;58.45
38780;BME280;29273;49.962;9.768;2023-08-01T11:02:27;98331.81;;;21.91;59.10
38780;BME280;29273;49.962;9.768;2023-08-01T11:07:23;98336.75;;;21.98;59.08
38780;BME280;29273;49.962;9.768;2023-08-01T11:09:48;98333.72;;;21.99;58.65
38780;BME280;29273;49.962;9.768;2023-08-01T11:12:14;98336.59;;;22.03;60.10
38780;BME280;29273;49.962;9.768;2023-08-01T11:14:39;98345.97;;;22.06;59.30
38780;BME280;29273;49.962;9.768;2023-08-01T11:17:05;98341.53;;;22.10;59.73
38780;BME280;29273;49.962;9.768;2023-08-01T11:19:31;98338.22;;;22.13;58.57
38780;BME280;29273;49.962;9.768;2023-08-01T11:21:57;98334.56;;;22.17;58.52
38780;BME280;29273;49.962;9.768;2023-08-01T11:24:24;98343.63;;;22.22;56.80
38780;BME280;29273;49.962;9.768;2023-08-01T11:26:50;98344.41;;;22.22;55.53
38780;BME280;29273;49.962;9.768;2023-08-01T11:29:17;98351.88;;;22.25;56.85
38780;BME280;29273;49.962;9.768;2023-08-01T11:31:56;98347.75;;;22.28;56.11
38780;BME280;29273;49.962;9.768;2023-08-01T11:34:23;98365.22;;;22.22;56.16
38780;BME280;29273;49.962;9.768;2023-08-01T11:36:49;98352.03;;;22.20;56.06
38780;BME280;29273;49.962;9.768;2023-08-01T11:39:15;98348.06;;;22.17;56.94
38780;BME280;29273;49.962;9.768;2023-08-01T11:41:42;98339.81;;;22.14;56.90
38780;BME280;29273;49.962;9.768;2023-08-01T11:44:08;98341.22;;;22.11;57.13
38780;BME280;29273;49.962;9.768;2023-08-01T11:46:36;98344.22;;;22.10;56.26
38780;BME280;29273;49.962;9.768;2023-08-01T11:49:02;98336.47;;;22.08;56.45
38780;BME280;29273;49.962;9.768;2023-08-01T11:51:28;98329.97;;;22.09;57.63
38780;BME280;29273;49.962;9.768;2023-08-01T11:54:03;98334.56;;;22.17;59.55
38780;BME280;29273;49.962;9.768;2023-08-01T11:56:30;98337.59;;;22.16;59.53
38780;BME280;29273;49.962;9.768;2023-08-01T11:58:56;98339.03;;;22.22;61.04
38780;BME280;29273;49.962;9.768;2023-08-01T12:01:22;98344.28;;;22.27;58.39
38780;BME280;29273;49.962;9.768;2023-08-01T12:03:53;98332.59;;;22.41;59.04
38780;BME280;29273;49.962;9.768;2023-08-01T12:06:20;98339.25;;;22.43;58.03
38780;BME280;29273;49.962;9.768;2023-08-01T12:08:50;98336.09;;;22.50;55.30
38780;BME280;29273;49.962;9.768;2023-08-01T12:13:45;98331.63;;;22.54;53.27
38780;BME280;29273;49.962;9.768;2023-08-01T12:16:11;98334.34;;;22.63;53.69
38780;BME280;29273;49.962;9.768;2023-08-01T12:18:38;98332.91;;;22.74;55.87
38780;BME280;29273;49.962;9.768;2023-08-01T12:21:04;98329.56;;;22.77;54.17
38780;BME280;29273;49.962;9.768;2023-08-01T12:23:31;98327.19;;;22.84;52.17
38780;BME280;29273;49.962;9.768;2023-08-01T12:25:56;98317.34;;;22.88;51.35
38780;BME280;29273;49.962;9.768;2023-08-01T12:28:22;98311.47;;;22.95;49.47
38780;BME280;29273;49.962;9.768;2023-08-01T12:30:47;98318.94;;;23.07;50.48
38780;BME280;29273;49.962;9.768;2023-08-01T12:33:13;98326.69;;;23.17;50.71
38780;BME280;29273;49.962;9.768;2023-08-01T12:35:40;98326.50;;;23.31;50.95
38780;BME280;29273;49.962;9.768;2023-08-01T12:38:07;98335.19;;;23.45;53.31
38780;BME280;29273;49.962;9.768;2023-08-01T12:40:32;98328.00;;;23.58;53.35
38780;BME280;29273;49.962;9.768;2023-08-01T12:42:58;98346.25;;;23.70;53.94
38780;BME280;29273;49.962;9.768;2023-08-01T12:45:23;98343.16;;;23.80;53.08
38780;BME280;29273;49.962;9.768;2023-08-01T12:47:49;98349.84;;;23.92;53.66
38780;BME280;29273;49.962;9.768;2023-08-01T12:50:15;98342.13;;;24.02;53.19
38780;BME280;29273;49.962;9.768;2023-08-01T12:52:41;98352.88;;;24.11;50.66
38780;BME280;29273;49.962;9.768;2023-08-01T12:55:07;98366.38;;;24.20;51.24
38780;BME280;29273;49.962;9.768;2023-08-01T12:57:33;98353.13;;;24.27;50.75
38780;BME280;29273;49.962;9.768;2023-08-01T12:59:59;98355.19;;;24.30;49.04
38780;BME280;29273;49.962;9.768;2023-08-01T13:02:24;98352.47;;;24.30;49.15